Flight Track Log - Related Links

Times and Time Zones

All times are in EDT time to prevent confusion due to time zone crossing. See the CSN6878 flight status page for this flight to view local times or setup timezone preferences in your user account.

Time Position Orientation Groundspeed Altitude Reporting Facility
EDT Latitude Longitude Course Direction KTS MPH feet Rate Location/Type
Fri 11:27:00 AM 41.8743 83.2859 55° Northeast  Level Estimated
Fri 11:28:00 AM 41.9522 83.4359 55° Northeast  Level Estimated
Fri 11:29:00 AM 42.0298 83.5863 55° Northeast  Level Estimated
Fri 11:30:00 AM 42.1073 83.7371 55° Northeast  Level Estimated
Fri 11:31:00 AM 42.1845 83.8882 55° Northeast  Level Estimated
Fri 11:32:00 AM 42.2616 84.0397 55° Northeast  Level Estimated
Fri 11:33:00 AM 42.3384 84.1916 56° Northeast  Level Estimated
Fri 11:34:00 AM 42.4151 84.3438 56° Northeast  Level Estimated
Fri 11:35:00 AM 42.4915 84.4964 56° Northeast  Level Estimated
Fri 11:36:00 AM 42.5677 84.6494 56° Northeast  Level Estimated
Fri 11:37:00 AM 42.6438 84.8028 56° Northeast  Level Estimated
Fri 11:38:00 AM 42.7196 84.9565 56° Northeast  Level Estimated
Fri 11:39:00 AM 42.7953 85.1106 56° Northeast  Level Estimated
Fri 11:40:00 AM 42.8707 85.2651 56° Northeast  Level Estimated
Fri 11:41:00 AM 42.9459 85.4200 56° Northeast  Level Estimated
Fri 11:42:00 AM 43.0209 85.5752 57° Northeast  Level Estimated
Fri 11:43:00 AM 43.0957 85.7308 57° Northeast  Level Estimated
Fri 11:44:00 AM 43.1703 85.8868 57° Northeast  Level Estimated
Fri 11:45:00 AM 43.2447 86.0432 57° Northeast  Level Estimated
Fri 11:46:00 AM 43.3188 86.2000 57° Northeast  Level Estimated
Fri 11:47:00 AM 43.3928 86.3571 57° Northeast  Level Estimated
Fri 11:48:00 AM 43.4665 86.5147 57° Northeast  Level Estimated
Fri 11:49:00 AM 43.5400 86.6726 57° Northeast  Level Estimated
Fri 11:50:00 AM 43.6133 86.8309 57° Northeast  Level Estimated
Fri 11:51:00 AM 43.6864 86.9896 57° Northeast  Level Estimated
Fri 11:52:00 AM 43.7592 87.1486 58° Northeast  Level Estimated
Fri 11:53:00 AM 43.8318 87.3081 58° Northeast  Level Estimated
Fri 11:54:00 AM 43.9043 87.4679 58° Northeast  Level Estimated
Fri 11:55:00 AM 43.9071 87.4742 58° Northeast  Level Estimated
Fri 11:56:00 AM 43.9071 87.4742 144° Southeast  Level Estimated
Fri 11:57:00 AM 43.9071 87.4742 144° Southeast  Level Estimated
Fri 11:58:00 AM 43.9071 87.4742 144° Southeast  Level Estimated
Fri 11:59:00 AM 43.9071 87.4742 144° Southeast  Level Estimated
Fri 12:00:00 PM 43.9071 87.4742 144° Southeast  Level Estimated
Fri 12:01:00 PM 43.9071 87.4742 144° Southeast  Level Estimated
Fri 12:02:00 PM 43.9071 87.4742 144° Southeast  Level Estimated
Fri 12:03:00 PM 43.9071 87.4742 144° Southeast  Level Estimated
Fri 12:04:00 PM 43.9071 87.4742 144° Southeast  Level Estimated
Fri 12:05:00 PM 43.9071 87.4742 144° Southeast  Level Estimated
Fri 12:06:00 PM 43.9071 87.4742 144° Southeast  Level Estimated
Fri 12:07:00 PM 43.9071 87.4742 144° Southeast  Level Estimated
Fri 12:08:00 PM 43.9071 87.4742 144° Southeast  Level Estimated
Fri 12:09:00 PM 43.9071 87.4742 144° Southeast  Level Estimated
Fri 12:10:00 PM 43.9071 87.4742 144° Southeast  Level Estimated

Login

Don't have an account? Register now (free) for customized features, flight alerts, and more!